createdAt,value
2019-05-10T00:00:36.338Z,97770.86
2019-05-10T00:05:59.666Z,97768.86
2019-05-10T00:11:33.038Z,97773.16
2019-05-10T00:16:40.692Z,97786.08
2019-05-10T00:21:47.952Z,97790.77
2019-05-10T00:26:56.723Z,97795.09
2019-05-10T00:32:02.682Z,97795.61
2019-05-10T00:37:14.085Z,97798.05
2019-05-10T00:42:19.698Z,97803.44
2019-05-10T00:47:25.161Z,97805.09
2019-05-10T00:52:30.659Z,97814.66
2019-05-10T00:57:38.630Z,97818.95
2019-05-10T01:02:52.360Z,97824.58
2019-05-10T01:08:05.984Z,97830.34
2019-05-10T01:13:08.653Z,97834.15
2019-05-10T01:18:18.148Z,97837.64
2019-05-10T01:23:29.512Z,97845.76
2019-05-10T01:28:35.059Z,97849.08
2019-05-10T01:33:40.917Z,97854.98
2019-05-10T01:38:48.887Z,97859.45
2019-05-10T01:43:54.790Z,97864.28
2019-05-10T01:49:11.503Z,97865.81
2019-05-10T01:54:20.179Z,97867.52
2019-05-10T01:59:26.036Z,97871.72
2019-05-10T02:04:31.573Z,97885.41
2019-05-10T02:09:37.089Z,97885.56
2019-05-10T02:19:54.966Z,97907.61
2019-05-10T02:25:01.757Z,97913.07
2019-05-10T02:30:09.669Z,97913.94
2019-05-10T02:35:15.344Z,97912.23
2019-05-10T02:40:24.616Z,97921.86
2019-05-10T02:45:35.528Z,97910.56
2019-05-10T02:50:48.461Z,97927.38
2019-05-10T02:55:54.641Z,97936.70
2019-05-10T03:01:02.242Z,97945.31
2019-05-10T03:06:15.597Z,97954.70
2019-05-10T03:11:24.461Z,97965.42
2019-05-10T03:16:36.877Z,97965.61
2019-05-10T03:21:47.265Z,97974.01
2019-05-10T03:26:53.321Z,97978.91
2019-05-10T03:32:01.885Z,97985.38
2019-05-10T03:37:08.696Z,97995.47
2019-05-10T03:42:20.400Z,98001.41
2019-05-10T03:47:27.507Z,98003.08
2019-05-10T03:52:37.917Z,98016.94
2019-05-10T03:57:46.312Z,98010.34
2019-05-10T04:02:52.948Z,98014.58
2019-05-10T04:07:59.104Z,98019.64
2019-05-10T04:13:05.067Z,98024.01
2019-05-10T04:18:10.711Z,98022.81
2019-05-10T04:23:16.935Z,98028.70
2019-05-10T04:28:22.938Z,98034.64
2019-05-10T04:33:28.481Z,98037.86
2019-05-10T04:38:35.033Z,98045.80
2019-05-10T04:43:43.425Z,98046.45
2019-05-10T04:48:50.531Z,98048.81
2019-05-10T04:53:56.062Z,98048.33
2019-05-10T04:59:03.246Z,98059.42
2019-05-10T05:04:14.523Z,98060.11
2019-05-10T05:09:24.138Z,98066.84
2019-05-10T05:14:40.752Z,98069.80
2019-05-10T05:19:41.280Z,98070.98
2019-05-10T05:24:48.310Z,98075.72
2019-05-10T05:30:02.896Z,98078.63
2019-05-10T05:35:15.473Z,98085.79
2019-05-10T05:40:25.383Z,98085.77
2019-05-10T05:45:34.155Z,98103.29
2019-05-10T05:50:39.757Z,98103.55
2019-05-10T05:55:46.497Z,98106.72
2019-05-10T06:00:55.148Z,98117.36
2019-05-10T06:06:15.351Z,98123.78
2019-05-10T06:11:13.293Z,98132.89
2019-05-10T06:16:23.720Z,98142.97
2019-05-10T06:21:31.672Z,98141.89
2019-05-10T06:26:37.333Z,98142.31
2019-05-10T06:31:44.113Z,98157.28
2019-05-10T06:36:49.710Z,98154.31
2019-05-10T06:42:08.842Z,98159.58
2019-05-10T06:47:15.916Z,98173.80
2019-05-10T06:52:27.266Z,98178.54
2019-05-10T06:57:30.823Z,98191.52
2019-05-10T07:02:40.090Z,98193.28
2019-05-10T07:07:46.793Z,98187.58
2019-05-10T07:12:57.169Z,98198.52
2019-05-10T07:17:59.609Z,98185.50
2019-05-10T07:23:06.592Z,98199.55
2019-05-10T07:28:15.807Z,98198.22
2019-05-10T07:33:22.535Z,98203.10
2019-05-10T07:38:30.820Z,98219.77
2019-05-10T07:43:37.281Z,98229.82
2019-05-10T07:48:47.450Z,98227.41
2019-05-10T07:53:57.028Z,98231.34
2019-05-10T07:59:00.734Z,98235.98
2019-05-10T08:04:12.912Z,98238.68
2019-05-10T08:09:19.068Z,98244.06
2019-05-10T08:14:30.166Z,98247.93
2019-05-10T08:19:37.679Z,98242.22
2019-05-10T08:24:44.566Z,98247.25
2019-05-10T08:30:15.763Z,98244.00
2019-05-10T08:34:58.373Z,98253.06
2019-05-10T08:40:07.728Z,98251.28
2019-05-10T08:45:13.364Z,98260.25
2019-05-10T08:50:34.485Z,98268.63
2019-05-10T08:55:26.404Z,98268.68
2019-05-10T09:00:49.435Z,98267.58
2019-05-10T09:05:44.514Z,98276.51
2019-05-10T09:10:50.036Z,98271.78
2019-05-10T09:15:57.051Z,98272.64
2019-05-10T09:21:08.879Z,98272.40
2019-05-10T09:26:16.261Z,98280.43
2019-05-10T09:31:22.823Z,98275.73
2019-05-10T09:36:31.266Z,98282.97
2019-05-10T09:41:38.082Z,98283.72
2019-05-10T09:46:44.050Z,98278.88
2019-05-10T09:51:52.526Z,98290.59
2019-05-10T09:57:02.618Z,98288.13
2019-05-10T10:02:14.698Z,98298.45
2019-05-10T10:07:18.936Z,98306.29
2019-05-10T10:12:25.565Z,98316.06
2019-05-10T10:17:40.282Z,98320.41
2019-05-10T10:22:43.472Z,98331.54
2019-05-10T10:27:48.840Z,98331.60
2019-05-10T10:32:58.043Z,98323.06
2019-05-10T10:38:05.103Z,98314.95
2019-05-10T10:43:10.930Z,98316.42
2019-05-10T10:48:18.044Z,98326.49
2019-05-10T10:53:28.054Z,98344.10
2019-05-10T10:58:34.969Z,98348.39
2019-05-10T11:03:40.796Z,98364.67
2019-05-10T11:08:46.289Z,98369.29
2019-05-10T11:14:06.889Z,98372.77
2019-05-10T11:19:15.608Z,98372.81
2019-05-10T11:24:18.648Z,98364.77
2019-05-10T11:29:27.655Z,98361.27
2019-05-10T11:34:37.488Z,98357.95
2019-05-10T11:39:46.899Z,98363.28
2019-05-10T11:44:52.818Z,98356.53
2019-05-10T11:49:56.673Z,98372.68
2019-05-10T11:55:02.395Z,98370.54
2019-05-10T12:00:24.512Z,98384.67
2019-05-10T12:05:22.677Z,98388.17
2019-05-10T12:10:26.453Z,98392.61
2019-05-10T12:15:32.194Z,98391.05
2019-05-10T12:20:52.115Z,98397.60
2019-05-10T12:26:16.656Z,98397.54
2019-05-10T12:30:58.429Z,98391.41
2019-05-10T12:36:04.223Z,98407.41
2019-05-10T12:41:12.228Z,98400.19
2019-05-10T12:46:17.790Z,98403.36
2019-05-10T12:51:23.385Z,98403.36
2019-05-10T12:56:34.847Z,98406.74
2019-05-10T13:01:38.748Z,98403.56
2019-05-10T13:06:44.298Z,98415.72
2019-05-10T13:11:49.801Z,98403.98
2019-05-10T13:16:56.355Z,98423.99
2019-05-10T13:22:09.175Z,98419.86
2019-05-10T13:27:17.592Z,98424.91
2019-05-10T13:32:23.267Z,98429.84
2019-05-10T13:37:29.797Z,98426.59
2019-05-10T13:42:43.319Z,98422.13
2019-05-10T13:47:42.946Z,98430.77
2019-05-10T13:52:51.265Z,98437.63
2019-05-10T13:57:56.841Z,98434.81
2019-05-10T14:03:05.063Z,98437.78
2019-05-10T14:08:09.762Z,98448.03
2019-05-10T14:13:16.786Z,98451.44
2019-05-10T14:18:22.703Z,98453.13
2019-05-10T14:23:28.954Z,98450.78
2019-05-10T14:28:39.068Z,98456.95
2019-05-10T14:34:14.255Z,98446.89
2019-05-10T14:38:56.555Z,98456.33
2019-05-10T14:44:08.298Z,98452.08
2019-05-10T14:49:14.019Z,98456.14
2019-05-10T14:54:20.811Z,98467.28
2019-05-10T14:59:27.652Z,98459.50
2019-05-10T15:04:48.651Z,98470.09
2019-05-10T15:09:40.431Z,98473.48
2019-05-10T15:14:45.894Z,98472.08
2019-05-10T15:19:57.627Z,98482.25
2019-05-10T15:24:59.872Z,98487.79
2019-05-10T15:30:08.130Z,98490.44
2019-05-10T15:35:13.537Z,98496.88
2019-05-10T15:40:19.774Z,98502.45
2019-05-10T15:45:25.468Z,98505.13
2019-05-10T15:50:32.641Z,98512.78
2019-05-10T15:55:39.249Z,98517.03
2019-05-10T16:00:44.891Z,98510.96
2019-05-10T16:06:00.529Z,98509.59
2019-05-10T16:10:57.619Z,98512.30
2019-05-10T16:16:07.426Z,98510.42
2019-05-10T16:21:15.124Z,98519.45
2019-05-10T16:26:23.057Z,98522.37
2019-05-10T16:31:28.896Z,98540.41
2019-05-10T16:36:36.032Z,98563.44
2019-05-10T16:41:43.598Z,98558.62
2019-05-10T16:46:49.172Z,98557.98
2019-05-10T16:51:54.735Z,98559.49
2019-05-10T16:57:02.009Z,98557.61
2019-05-10T17:02:11.972Z,98559.77
2019-05-10T17:07:18.812Z,98567.27
2019-05-10T17:12:27.781Z,98569.79
2019-05-10T17:17:39.512Z,98575.27
2019-05-10T17:22:47.587Z,98577.27
2019-05-10T17:27:57.534Z,98588.08
2019-05-10T17:33:04.121Z,98579.92
2019-05-10T17:38:14.232Z,98582.44
2019-05-10T17:43:20.596Z,98576.34
2019-05-10T17:48:29.722Z,98582.58
2019-05-10T17:53:37.418Z,98594.55
2019-05-10T17:58:47.822Z,98587.05
2019-05-10T18:03:53.426Z,98598.45
2019-05-10T18:09:11.937Z,98596.44
2019-05-10T18:14:19.742Z,98610.91
2019-05-10T18:19:27.291Z,98609.45
2019-05-10T18:24:42.117Z,98602.50
2019-05-10T18:29:49.378Z,98611.94
2019-05-10T18:34:57.533Z,98611.56
2019-05-10T18:40:08.181Z,98617.36
2019-05-10T18:45:16.738Z,98619.93
2019-05-10T18:50:22.435Z,98627.80
2019-05-10T18:55:28.723Z,98635.89
2019-05-10T19:00:36.647Z,98644.16
2019-05-10T19:05:46.799Z,98648.00
2019-05-10T19:10:55.729Z,98659.34
2019-05-10T19:16:03.368Z,98663.59
2019-05-10T19:21:12.167Z,98669.16
2019-05-10T19:26:23.941Z,98672.54
2019-05-10T19:31:31.732Z,98675.56
2019-05-10T19:36:38.725Z,98680.63
2019-05-10T19:41:47.480Z,98679.41
2019-05-10T19:46:54.395Z,98685.45
2019-05-10T19:52:03.363Z,98685.11
2019-05-10T19:57:16.403Z,98683.83
2019-05-10T20:02:17.992Z,98677.72
2019-05-10T20:07:23.658Z,98698.13
2019-05-10T20:12:32.536Z,98709.14
2019-05-10T20:17:38.257Z,98715.22
2019-05-10T20:22:45.312Z,98724.23
2019-05-10T20:27:52.068Z,98726.80
2019-05-10T20:32:59.916Z,98718.06
2019-05-10T20:38:10.833Z,98738.47
2019-05-10T20:43:18.195Z,98735.27
2019-05-10T20:48:25.470Z,98733.06
2019-05-10T20:53:33.237Z,98727.79
2019-05-10T20:58:38.857Z,98726.47
2019-05-10T21:03:44.394Z,98730.52
2019-05-10T21:08:50.071Z,98734.50
2019-05-10T21:14:17.429Z,98745.01
2019-05-10T21:19:12.912Z,98744.77
2019-05-10T21:24:18.580Z,98742.42
2019-05-10T21:29:24.967Z,98739.80
2019-05-10T21:34:30.730Z,98739.84
2019-05-10T21:39:38.709Z,98744.39
2019-05-10T21:44:45.388Z,98750.75
2019-05-10T21:49:50.990Z,98758.89
2019-05-10T21:54:56.424Z,98752.44
2019-05-10T22:00:04.228Z,98756.11
2019-05-10T22:05:11.503Z,98750.86
2019-05-10T22:10:17.166Z,98752.30
2019-05-10T22:15:23.989Z,98747.72
2019-05-10T22:20:33.102Z,98739.88
2019-05-10T22:25:38.629Z,98734.55
2019-05-10T22:30:44.328Z,98753.52
2019-05-10T22:35:49.838Z,98749.20
2019-05-10T22:40:55.356Z,98755.41
2019-05-10T22:46:01.873Z,98759.59
2019-05-10T22:51:11.868Z,98757.88
2019-05-10T22:56:17.351Z,98774.59
2019-05-10T23:01:25.409Z,98767.97
2019-05-10T23:06:30.985Z,98772.39
2019-05-10T23:11:36.546Z,98757.91
2019-05-10T23:16:43.434Z,98771.05
2019-05-10T23:21:48.966Z,98785.96
2019-05-10T23:26:57.391Z,98781.72
2019-05-10T23:32:05.275Z,98780.75
2019-05-10T23:37:16.286Z,98779.88
2019-05-10T23:42:23.336Z,98773.70
2019-05-10T23:47:31.801Z,98769.27
2019-05-10T23:52:46.190Z,98768.84
2019-05-10T23:57:51.725Z,98747.08
